sensor_id;sensor_type;location;lat;lon;timestamp;temperature;humidity
73322;DHT22;61549;37.044;22.128;2022-12-24T00:01:26;15.70;50.00
73322;DHT22;61549;37.044;22.128;2022-12-24T00:03:53;15.60;50.30
73322;DHT22;61549;37.044;22.128;2022-12-24T00:06:22;15.50;50.20
73322;DHT22;61549;37.044;22.128;2022-12-24T00:08:48;15.50;50.30
73322;DHT22;61549;37.044;22.128;2022-12-24T00:11:16;15.50;50.30
73322;DHT22;61549;37.044;22.128;2022-12-24T00:13:42;15.50;50.30
73322;DHT22;61549;37.044;22.128;2022-12-24T00:16:08;15.40;50.10
73322;DHT22;61549;37.044;22.128;2022-12-24T00:18:34;15.30;50.60
73322;DHT22;61549;37.044;22.128;2022-12-24T00:20:59;15.30;50.80
73322;DHT22;61549;37.044;22.128;2022-12-24T00:23:28;15.30;50.70
73322;DHT22;61549;37.044;22.128;2022-12-24T00:25:54;15.30;51.00
73322;DHT22;61549;37.044;22.128;2022-12-24T00:28:21;15.30;51.00
73322;DHT22;61549;37.044;22.128;2022-12-24T00:30:47;15.20;50.90
73322;DHT22;61549;37.044;22.128;2022-12-24T00:33:13;15.20;50.90
73322;DHT22;61549;37.044;22.128;2022-12-24T00:35:40;15.20;51.80
73322;DHT22;61549;37.044;22.128;2022-12-24T00:38:06;15.20;51.00
73322;DHT22;61549;37.044;22.128;2022-12-24T00:40:32;15.00;51.00
73322;DHT22;61549;37.044;22.128;2022-12-24T00:42:58;15.00;51.30
73322;DHT22;61549;37.044;22.128;2022-12-24T00:45:24;15.00;51.50
73322;DHT22;61549;37.044;22.128;2022-12-24T00:47:52;15.00;51.50
73322;DHT22;61549;37.044;22.128;2022-12-24T00:50:18;15.00;51.60
73322;DHT22;61549;37.044;22.128;2022-12-24T00:52:44;15.00;51.60
73322;DHT22;61549;37.044;22.128;2022-12-24T00:55:10;14.90;51.70
73322;DHT22;61549;37.044;22.128;2022-12-24T00:57:36;14.90;52.30
73322;DHT22;61549;37.044;22.128;2022-12-24T01:00:03;14.80;51.70
73322;DHT22;61549;37.044;22.128;2022-12-24T01:02:28;14.80;51.50
73322;DHT22;61549;37.044;22.128;2022-12-24T01:04:54;14.70;51.30
73322;DHT22;61549;37.044;22.128;2022-12-24T01:07:37;14.70;51.40
73322;DHT22;61549;37.044;22.128;2022-12-24T01:10:03;14.70;51.70
73322;DHT22;61549;37.044;22.128;2022-12-24T01:12:30;14.60;51.40
73322;DHT22;61549;37.044;22.128;2022-12-24T01:14:56;14.60;51.30
73322;DHT22;61549;37.044;22.128;2022-12-24T01:17:22;14.60;51.40
73322;DHT22;61549;37.044;22.128;2022-12-24T01:19:48;14.60;51.80
73322;DHT22;61549;37.044;22.128;2022-12-24T01:22:13;14.60;52.50
73322;DHT22;61549;37.044;22.128;2022-12-24T01:24:40;14.60;52.30
73322;DHT22;61549;37.044;22.128;2022-12-24T01:27:06;14.50;52.20
73322;DHT22;61549;37.044;22.128;2022-12-24T01:29:32;14.40;52.50
73322;DHT22;61549;37.044;22.128;2022-12-24T01:31:58;14.40;52.20
73322;DHT22;61549;37.044;22.128;2022-12-24T01:34:24;14.30;51.90
73322;DHT22;61549;37.044;22.128;2022-12-24T01:36:50;14.30;51.80
73322;DHT22;61549;37.044;22.128;2022-12-24T01:39:16;14.30;51.80
73322;DHT22;61549;37.044;22.128;2022-12-24T01:41:42;14.20;51.70
73322;DHT22;61549;37.044;22.128;2022-12-24T01:44:33;14.20;51.80
73322;DHT22;61549;37.044;22.128;2022-12-24T01:47:07;14.20;51.90
73322;DHT22;61549;37.044;22.128;2022-12-24T01:49:57;14.20;51.70
73322;DHT22;61549;37.044;22.128;2022-12-24T01:52:29;14.30;51.70
73322;DHT22;61549;37.044;22.128;2022-12-24T01:55:13;14.20;51.90
73322;DHT22;61549;37.044;22.128;2022-12-24T01:57:53;14.30;51.60
73322;DHT22;61549;37.044;22.128;2022-12-24T02:00:21;14.20;51.50
73322;DHT22;61549;37.044;22.128;2022-12-24T02:02:49;14.20;51.50
73322;DHT22;61549;37.044;22.128;2022-12-24T02:05:39;14.20;51.60
73322;DHT22;61549;37.044;22.128;2022-12-24T02:08:07;14.30;51.50
73322;DHT22;61549;37.044;22.128;2022-12-24T02:10:33;14.30;51.60
73322;DHT22;61549;37.044;22.128;2022-12-24T02:13:00;14.20;51.50
73322;DHT22;61549;37.044;22.128;2022-12-24T02:15:28;14.20;51.50
73322;DHT22;61549;37.044;22.128;2022-12-24T02:18:10;14.20;51.70
73322;DHT22;61549;37.044;22.128;2022-12-24T02:32:23;14.10;51.60
73322;DHT22;61549;37.044;22.128;2022-12-24T02:37:21;14.10;52.00
73322;DHT22;61549;37.044;22.128;2022-12-24T02:40:00;14.00;52.10
73322;DHT22;61549;37.044;22.128;2022-12-24T02:42:36;14.00;52.30
73322;DHT22;61549;37.044;22.128;2022-12-24T02:47:33;13.90;52.20
73322;DHT22;61549;37.044;22.128;2022-12-24T02:50:02;13.90;51.90
73322;DHT22;61549;37.044;22.128;2022-12-24T02:52:37;13.90;51.50
73322;DHT22;61549;37.044;22.128;2022-12-24T02:55:18;13.90;51.30
73322;DHT22;61549;37.044;22.128;2022-12-24T03:03:39;14.00;51.50
73322;DHT22;61549;37.044;22.128;2022-12-24T03:11:14;14.10;51.80
73322;DHT22;61549;37.044;22.128;2022-12-24T03:13:41;14.10;51.80
73322;DHT22;61549;37.044;22.128;2022-12-24T03:16:11;14.00;51.80
73322;DHT22;61549;37.044;22.128;2022-12-24T03:18:43;13.90;51.60
73322;DHT22;61549;37.044;22.128;2022-12-24T03:21:17;13.90;51.40
73322;DHT22;61549;37.044;22.128;2022-12-24T03:23:45;13.90;51.30
73322;DHT22;61549;37.044;22.128;2022-12-24T03:26:14;13.90;51.70
73322;DHT22;61549;37.044;22.128;2022-12-24T03:28:41;14.00;52.00
73322;DHT22;61549;37.044;22.128;2022-12-24T03:31:09;13.90;51.90
73322;DHT22;61549;37.044;22.128;2022-12-24T03:33:35;13.80;51.90
73322;DHT22;61549;37.044;22.128;2022-12-24T03:36:01;13.80;52.10
73322;DHT22;61549;37.044;22.128;2022-12-24T03:38:27;13.70;52.00
73322;DHT22;61549;37.044;22.128;2022-12-24T03:40:53;13.70;51.60
73322;DHT22;61549;37.044;22.128;2022-12-24T03:43:19;13.70;51.40
73322;DHT22;61549;37.044;22.128;2022-12-24T03:45:45;13.70;51.00
73322;DHT22;61549;37.044;22.128;2022-12-24T03:48:10;13.80;50.80
73322;DHT22;61549;37.044;22.128;2022-12-24T03:50:36;13.90;50.70
73322;DHT22;61549;37.044;22.128;2022-12-24T03:53:02;13.90;50.60
73322;DHT22;61549;37.044;22.128;2022-12-24T03:55:28;14.00;50.40
73322;DHT22;61549;37.044;22.128;2022-12-24T03:57:54;14.00;50.60
73322;DHT22;61549;37.044;22.128;2022-12-24T04:00:20;14.00;50.90
73322;DHT22;61549;37.044;22.128;2022-12-24T04:02:46;14.00;50.80
73322;DHT22;61549;37.044;22.128;2022-12-24T04:05:17;14.10;50.80
73322;DHT22;61549;37.044;22.128;2022-12-24T04:07:43;14.10;50.80
73322;DHT22;61549;37.044;22.128;2022-12-24T04:10:10;14.10;51.10
73322;DHT22;61549;37.044;22.128;2022-12-24T04:12:36;14.10;51.30
73322;DHT22;61549;37.044;22.128;2022-12-24T04:15:03;14.10;51.90
73322;DHT22;61549;37.044;22.128;2022-12-24T04:17:29;14.00;51.40
73322;DHT22;61549;37.044;22.128;2022-12-24T04:19:55;14.00;51.40
73322;DHT22;61549;37.044;22.128;2022-12-24T04:22:21;13.90;51.50
73322;DHT22;61549;37.044;22.128;2022-12-24T04:24:47;13.90;51.50
73322;DHT22;61549;37.044;22.128;2022-12-24T04:27:14;13.80;51.30
73322;DHT22;61549;37.044;22.128;2022-12-24T04:29:39;13.80;51.80
73322;DHT22;61549;37.044;22.128;2022-12-24T04:32:05;13.80;52.20
73322;DHT22;61549;37.044;22.128;2022-12-24T04:34:31;13.80;52.80
73322;DHT22;61549;37.044;22.128;2022-12-24T04:36:57;13.70;52.40
73322;DHT22;61549;37.044;22.128;2022-12-24T04:39:23;13.70;51.90
73322;DHT22;61549;37.044;22.128;2022-12-24T04:41:49;13.80;52.70
73322;DHT22;61549;37.044;22.128;2022-12-24T04:44:15;13.80;52.80
73322;DHT22;61549;37.044;22.128;2022-12-24T04:46:41;13.70;52.70
73322;DHT22;61549;37.044;22.128;2022-12-24T04:49:07;13.70;52.60
73322;DHT22;61549;37.044;22.128;2022-12-24T04:51:33;13.60;52.70
73322;DHT22;61549;37.044;22.128;2022-12-24T04:53:59;13.60;52.70
73322;DHT22;61549;37.044;22.128;2022-12-24T04:56:27;13.50;52.70
73322;DHT22;61549;37.044;22.128;2022-12-24T04:58:54;13.50;52.60
73322;DHT22;61549;37.044;22.128;2022-12-24T05:01:25;13.60;52.30
73322;DHT22;61549;37.044;22.128;2022-12-24T05:03:52;13.60;52.00
73322;DHT22;61549;37.044;22.128;2022-12-24T05:06:21;13.60;52.10
73322;DHT22;61549;37.044;22.128;2022-12-24T05:08:48;13.60;52.10
73322;DHT22;61549;37.044;22.128;2022-12-24T05:11:14;13.60;52.40
73322;DHT22;61549;37.044;22.128;2022-12-24T05:13:42;13.60;52.90
73322;DHT22;61549;37.044;22.128;2022-12-24T05:16:09;13.60;53.00
73322;DHT22;61549;37.044;22.128;2022-12-24T05:18:35;13.50;52.70
73322;DHT22;61549;37.044;22.128;2022-12-24T05:21:01;13.40;52.60
73322;DHT22;61549;37.044;22.128;2022-12-24T05:23:27;13.40;52.30
73322;DHT22;61549;37.044;22.128;2022-12-24T05:28:58;13.30;52.80
73322;DHT22;61549;37.044;22.128;2022-12-24T05:31:34;13.40;53.60
73322;DHT22;61549;37.044;22.128;2022-12-24T05:34:00;13.40;53.30
73322;DHT22;61549;37.044;22.128;2022-12-24T05:36:28;13.30;53.40
73322;DHT22;61549;37.044;22.128;2022-12-24T05:38:54;13.30;53.30
73322;DHT22;61549;37.044;22.128;2022-12-24T05:41:20;13.30;53.20
73322;DHT22;61549;37.044;22.128;2022-12-24T05:43:46;13.30;53.00
73322;DHT22;61549;37.044;22.128;2022-12-24T05:46:14;13.20;53.00
73322;DHT22;61549;37.044;22.128;2022-12-24T05:48:41;13.20;53.00
73322;DHT22;61549;37.044;22.128;2022-12-24T05:51:08;13.20;52.80
73322;DHT22;61549;37.044;22.128;2022-12-24T05:53:35;13.20;52.50
73322;DHT22;61549;37.044;22.128;2022-12-24T05:56:13;13.20;52.40
73322;DHT22;61549;37.044;22.128;2022-12-24T05:58:40;13.30;52.20
73322;DHT22;61549;37.044;22.128;2022-12-24T06:01:07;13.30;52.30
73322;DHT22;61549;37.044;22.128;2022-12-24T06:03:34;13.40;52.20
73322;DHT22;61549;37.044;22.128;2022-12-24T06:06:01;13.40;52.40
73322;DHT22;61549;37.044;22.128;2022-12-24T06:08:28;13.30;52.70
73322;DHT22;61549;37.044;22.128;2022-12-24T06:11:01;13.40;52.60
73322;DHT22;61549;37.044;22.128;2022-12-24T06:13:28;13.40;52.60
73322;DHT22;61549;37.044;22.128;2022-12-24T06:15:58;13.50;52.90
73322;DHT22;61549;37.044;22.128;2022-12-24T06:18:25;13.50;53.00
73322;DHT22;61549;37.044;22.128;2022-12-24T06:20:52;13.50;53.30
73322;DHT22;61549;37.044;22.128;2022-12-24T06:23:19;13.60;53.30
73322;DHT22;61549;37.044;22.128;2022-12-24T06:25:45;13.60;53.10
73322;DHT22;61549;37.044;22.128;2022-12-24T06:28:11;13.60;53.30
73322;DHT22;61549;37.044;22.128;2022-12-24T06:30:37;13.60;54.00
73322;DHT22;61549;37.044;22.128;2022-12-24T06:33:03;13.60;53.60
73322;DHT22;61549;37.044;22.128;2022-12-24T06:35:33;13.70;53.50
73322;DHT22;61549;37.044;22.128;2022-12-24T06:37:59;13.70;53.50
73322;DHT22;61549;37.044;22.128;2022-12-24T06:40:26;13.80;54.30
73322;DHT22;61549;37.044;22.128;2022-12-24T06:42:52;13.70;54.80
73322;DHT22;61549;37.044;22.128;2022-12-24T06:45:18;13.90;54.60
73322;DHT22;61549;37.044;22.128;2022-12-24T06:47:44;13.80;54.70
73322;DHT22;61549;37.044;22.128;2022-12-24T06:50:10;13.80;54.60
73322;DHT22;61549;37.044;22.128;2022-12-24T06:52:36;13.90;54.20
73322;DHT22;61549;37.044;22.128;2022-12-24T06:55:03;14.10;54.20
73322;DHT22;61549;37.044;22.128;2022-12-24T06:57:29;14.30;53.60
73322;DHT22;61549;37.044;22.128;2022-12-24T06:59:57;14.60;52.80
73322;DHT22;61549;37.044;22.128;2022-12-24T07:02:23;14.90;51.90
73322;DHT22;61549;37.044;22.128;2022-12-24T07:04:49;15.10;51.40
73322;DHT22;61549;37.044;22.128;2022-12-24T07:07:15;15.40;50.70
73322;DHT22;61549;37.044;22.128;2022-12-24T07:09:41;15.60;50.20
73322;DHT22;61549;37.044;22.128;2022-12-24T07:12:07;15.80;49.70
73322;DHT22;61549;37.044;22.128;2022-12-24T07:14:32;16.00;50.30
73322;DHT22;61549;37.044;22.128;2022-12-24T07:16:58;16.20;51.30
73322;DHT22;61549;37.044;22.128;2022-12-24T07:19:25;16.30;50.70
73322;DHT22;61549;37.044;22.128;2022-12-24T07:21:51;16.40;51.30
73322;DHT22;61549;37.044;22.128;2022-12-24T07:24:16;16.60;51.90
73322;DHT22;61549;37.044;22.128;2022-12-24T07:26:43;16.80;51.40
73322;DHT22;61549;37.044;22.128;2022-12-24T07:29:08;17.00;51.80
73322;DHT22;61549;37.044;22.128;2022-12-24T07:31:34;17.10;51.60
73322;DHT22;61549;37.044;22.128;2022-12-24T07:34:00;17.20;48.60
73322;DHT22;61549;37.044;22.128;2022-12-24T07:36:26;17.30;48.00
73322;DHT22;61549;37.044;22.128;2022-12-24T07:38:53;17.40;47.70
73322;DHT22;61549;37.044;22.128;2022-12-24T07:41:19;17.60;47.40
73322;DHT22;61549;37.044;22.128;2022-12-24T07:43:45;17.80;48.10
73322;DHT22;61549;37.044;22.128;2022-12-24T07:46:11;18.00;47.70
73322;DHT22;61549;37.044;22.128;2022-12-24T07:48:38;18.20;47.80
73322;DHT22;61549;37.044;22.128;2022-12-24T07:51:04;18.40;47.30
73322;DHT22;61549;37.044;22.128;2022-12-24T07:53:30;18.50;48.70
73322;DHT22;61549;37.044;22.128;2022-12-24T07:55:56;18.60;47.70
73322;DHT22;61549;37.044;22.128;2022-12-24T07:58:23;18.70;46.80
73322;DHT22;61549;37.044;22.128;2022-12-24T08:00:53;18.90;47.30
73322;DHT22;61549;37.044;22.128;2022-12-24T08:03:20;18.90;45.90
73322;DHT22;61549;37.044;22.128;2022-12-24T08:05:46;19.00;45.30
73322;DHT22;61549;37.044;22.128;2022-12-24T08:08:13;19.10;45.80
73322;DHT22;61549;37.044;22.128;2022-12-24T08:10:39;19.30;46.30
73322;DHT22;61549;37.044;22.128;2022-12-24T08:13:05;19.40;46.80
73322;DHT22;61549;37.044;22.128;2022-12-24T08:15:31;19.50;47.00
73322;DHT22;61549;37.044;22.128;2022-12-24T08:17:57;19.50;46.70
73322;DHT22;61549;37.044;22.128;2022-12-24T08:20:23;19.70;47.80
73322;DHT22;61549;37.044;22.128;2022-12-24T08:22:49;19.80;47.60
73322;DHT22;61549;37.044;22.128;2022-12-24T08:25:15;20.00;47.60
73322;DHT22;61549;37.044;22.128;2022-12-24T08:27:41;20.10;46.90
73322;DHT22;61549;37.044;22.128;2022-12-24T08:30:08;20.20;46.00
73322;DHT22;61549;37.044;22.128;2022-12-24T08:32:34;20.30;43.90
73322;DHT22;61549;37.044;22.128;2022-12-24T08:34:59;20.40;42.90
73322;DHT22;61549;37.044;22.128;2022-12-24T08:37:25;20.60;43.20
73322;DHT22;61549;37.044;22.128;2022-12-24T08:39:51;20.70;43.70
73322;DHT22;61549;37.044;22.128;2022-12-24T08:42:17;20.70;43.20
73322;DHT22;61549;37.044;22.128;2022-12-24T08:44:43;20.90;43.70
73322;DHT22;61549;37.044;22.128;2022-12-24T08:47:09;21.10;44.10
73322;DHT22;61549;37.044;22.128;2022-12-24T08:49:34;21.10;43.60
73322;DHT22;61549;37.044;22.128;2022-12-24T08:52:00;21.30;42.70
73322;DHT22;61549;37.044;22.128;2022-12-24T08:54:26;21.40;42.00
73322;DHT22;61549;37.044;22.128;2022-12-24T08:56:52;21.60;41.80
73322;DHT22;61549;37.044;22.128;2022-12-24T08:59:18;21.60;41.60
73322;DHT22;61549;37.044;22.128;2022-12-24T09:01:44;21.70;42.00
73322;DHT22;61549;37.044;22.128;2022-12-24T09:04:10;21.70;41.10
73322;DHT22;61549;37.044;22.128;2022-12-24T09:06:35;21.70;41.10
73322;DHT22;61549;37.044;22.128;2022-12-24T09:09:02;21.80;41.60
73322;DHT22;61549;37.044;22.128;2022-12-24T09:11:29;21.80;42.20
73322;DHT22;61549;37.044;22.128;2022-12-24T09:13:55;22.00;42.40
73322;DHT22;61549;37.044;22.128;2022-12-24T09:16:21;22.10;39.10
73322;DHT22;61549;37.044;22.128;2022-12-24T09:18:47;22.20;39.30
73322;DHT22;61549;37.044;22.128;2022-12-24T09:21:14;22.20;40.30
73322;DHT22;61549;37.044;22.128;2022-12-24T09:23:42;22.30;38.80
73322;DHT22;61549;37.044;22.128;2022-12-24T09:26:13;22.30;38.30
73322;DHT22;61549;37.044;22.128;2022-12-24T09:28:39;22.30;39.10
73322;DHT22;61549;37.044;22.128;2022-12-24T09:31:06;22.20;39.40
73322;DHT22;61549;37.044;22.128;2022-12-24T09:33:34;22.20;39.10
73322;DHT22;61549;37.044;22.128;2022-12-24T09:36:00;22.20;39.50
73322;DHT22;61549;37.044;22.128;2022-12-24T09:38:26;22.40;38.50
73322;DHT22;61549;37.044;22.128;2022-12-24T09:40:54;22.40;38.00
73322;DHT22;61549;37.044;22.128;2022-12-24T09:43:22;22.40;38.50
73322;DHT22;61549;37.044;22.128;2022-12-24T09:46:28;22.40;39.10
73322;DHT22;61549;37.044;22.128;2022-12-24T09:49:02;22.50;38.60
73322;DHT22;61549;37.044;22.128;2022-12-24T09:51:51;22.60;38.00
73322;DHT22;61549;37.044;22.128;2022-12-24T09:54:28;22.60;37.30
73322;DHT22;61549;37.044;22.128;2022-12-24T09:56:58;22.60;38.00
73322;DHT22;61549;37.044;22.128;2022-12-24T09:59:39;22.60;38.20
73322;DHT22;61549;37.044;22.128;2022-12-24T10:02:10;22.50;39.40
73322;DHT22;61549;37.044;22.128;2022-12-24T10:04:37;22.50;39.70
73322;DHT22;61549;37.044;22.128;2022-12-24T10:18:14;22.80;38.10
73322;DHT22;61549;37.044;22.128;2022-12-24T10:23:39;22.90;36.20
73322;DHT22;61549;37.044;22.128;2022-12-24T10:29:05;23.00;35.00
73322;DHT22;61549;37.044;22.128;2022-12-24T10:31:43;23.00;35.50
73322;DHT22;61549;37.044;22.128;2022-12-24T10:34:22;23.00;35.90
73322;DHT22;61549;37.044;22.128;2022-12-24T10:36:49;23.00;35.60
73322;DHT22;61549;37.044;22.128;2022-12-24T10:39:21;23.10;37.10
73322;DHT22;61549;37.044;22.128;2022-12-24T10:41:51;23.10;36.50
73322;DHT22;61549;37.044;22.128;2022-12-24T10:44:21;23.20;35.40
73322;DHT22;61549;37.044;22.128;2022-12-24T10:46:48;23.20;34.40
73322;DHT22;61549;37.044;22.128;2022-12-24T10:49:19;23.10;34.40
73322;DHT22;61549;37.044;22.128;2022-12-24T10:51:56;23.20;33.90
73322;DHT22;61549;37.044;22.128;2022-12-24T10:54:26;23.20;34.40
73322;DHT22;61549;37.044;22.128;2022-12-24T10:56:58;23.20;34.20
73322;DHT22;61549;37.044;22.128;2022-12-24T10:59:25;23.10;35.10
73322;DHT22;61549;37.044;22.128;2022-12-24T11:01:52;23.10;36.00
73322;DHT22;61549;37.044;22.128;2022-12-24T11:04:21;23.00;36.50
73322;DHT22;61549;37.044;22.128;2022-12-24T11:09:42;22.70;34.90
73322;DHT22;61549;37.044;22.128;2022-12-24T11:12:21;22.70;35.10
73322;DHT22;61549;37.044;22.128;2022-12-24T11:14:49;22.60;35.50
73322;DHT22;61549;37.044;22.128;2022-12-24T11:17:23;22.70;34.30
73322;DHT22;61549;37.044;22.128;2022-12-24T11:19:50;22.70;33.90
73322;DHT22;61549;37.044;22.128;2022-12-24T11:22:22;22.70;34.40
73322;DHT22;61549;37.044;22.128;2022-12-24T11:25:13;22.60;34.60
73322;DHT22;61549;37.044;22.128;2022-12-24T11:27:44;22.80;35.70
73322;DHT22;61549;37.044;22.128;2022-12-24T11:32:50;22.70;35.50
73322;DHT22;61549;37.044;22.128;2022-12-24T11:35:39;22.70;35.70
73322;DHT22;61549;37.044;22.128;2022-12-24T11:40:43;22.60;35.80
73322;DHT22;61549;37.044;22.128;2022-12-24T11:43:19;22.90;35.90
73322;DHT22;61549;37.044;22.128;2022-12-24T11:45:53;22.70;36.50
73322;DHT22;61549;37.044;22.128;2022-12-24T11:48:37;22.60;35.90
73322;DHT22;61549;37.044;22.128;2022-12-24T11:51:05;22.40;36.40
73322;DHT22;61549;37.044;22.128;2022-12-24T11:56:11;22.50;36.90
73322;DHT22;61549;37.044;22.128;2022-12-24T11:58:53;22.60;36.70
73322;DHT22;61549;37.044;22.128;2022-12-24T12:03:52;22.60;36.10
73322;DHT22;61549;37.044;22.128;2022-12-24T12:06:38;22.50;37.30
73322;DHT22;61549;37.044;22.128;2022-12-24T12:09:11;22.70;37.20
73322;DHT22;61549;37.044;22.128;2022-12-24T12:11:40;22.90;36.90
73322;DHT22;61549;37.044;22.128;2022-12-24T12:14:13;22.90;36.80
73322;DHT22;61549;37.044;22.128;2022-12-24T12:19:47;23.00;37.00
73322;DHT22;61549;37.044;22.128;2022-12-24T12:25:25;23.00;36.40
73322;DHT22;61549;37.044;22.128;2022-12-24T12:27:54;23.10;37.00
73322;DHT22;61549;37.044;22.128;2022-12-24T12:30:22;23.20;37.70
73322;DHT22;61549;37.044;22.128;2022-12-24T12:35:41;22.90;36.10
73322;DHT22;61549;37.044;22.128;2022-12-24T12:38:14;22.90;36.90
73322;DHT22;61549;37.044;22.128;2022-12-24T12:48:34;22.40;38.20
73322;DHT22;61549;37.044;22.128;2022-12-24T12:51:21;22.50;39.00
73322;DHT22;61549;37.044;22.128;2022-12-24T12:56:52;21.90;40.70
73322;DHT22;61549;37.044;22.128;2022-12-24T13:02:03;22.00;41.00
73322;DHT22;61549;37.044;22.128;2022-12-24T13:08:00;22.40;41.20
73322;DHT22;61549;37.044;22.128;2022-12-24T13:10:40;22.60;41.80
73322;DHT22;61549;37.044;22.128;2022-12-24T13:16:37;22.60;42.00
73322;DHT22;61549;37.044;22.128;2022-12-24T13:19:52;22.70;42.50
73322;DHT22;61549;37.044;22.128;2022-12-24T13:22:22;22.80;43.20
73322;DHT22;61549;37.044;22.128;2022-12-24T13:24:52;23.10;42.70
73322;DHT22;61549;37.044;22.128;2022-12-24T13:27:23;23.00;42.20
73322;DHT22;61549;37.044;22.128;2022-12-24T13:29:57;22.90;42.10
73322;DHT22;61549;37.044;22.128;2022-12-24T13:34:54;22.30;44.00
73322;DHT22;61549;37.044;22.128;2022-12-24T13:37:40;22.20;44.30
73322;DHT22;61549;37.044;22.128;2022-12-24T13:50:48;22.50;45.50
73322;DHT22;61549;37.044;22.128;2022-12-24T13:58:19;22.50;45.20
73322;DHT22;61549;37.044;22.128;2022-12-24T14:00:56;22.50;45.60
73322;DHT22;61549;37.044;22.128;2022-12-24T14:03:35;22.40;45.60
73322;DHT22;61549;37.044;22.128;2022-12-24T14:06:09;22.40;45.80
73322;DHT22;61549;37.044;22.128;2022-12-24T14:08:41;22.50;46.20
73322;DHT22;61549;37.044;22.128;2022-12-24T14:11:12;22.50;46.50
73322;DHT22;61549;37.044;22.128;2022-12-24T14:19:03;22.50;46.70
73322;DHT22;61549;37.044;22.128;2022-12-24T14:21:37;22.50;46.60
73322;DHT22;61549;37.044;22.128;2022-12-24T14:24:15;22.50;46.90
73322;DHT22;61549;37.044;22.128;2022-12-24T14:26:49;22.50;46.90
73322;DHT22;61549;37.044;22.128;2022-12-24T14:32:14;22.20;47.20
73322;DHT22;61549;37.044;22.128;2022-12-24T14:34:40;22.20;47.60
73322;DHT22;61549;37.044;22.128;2022-12-24T14:37:11;22.00;47.60
73322;DHT22;61549;37.044;22.128;2022-12-24T14:39:42;22.00;47.50
73322;DHT22;61549;37.044;22.128;2022-12-24T14:48:11;22.00;47.80
73322;DHT22;61549;37.044;22.128;2022-12-24T14:54:07;22.00;48.40
73322;DHT22;61549;37.044;22.128;2022-12-24T14:56:35;21.90;48.40
73322;DHT22;61549;37.044;22.128;2022-12-24T14:59:16;21.80;48.50
73322;DHT22;61549;37.044;22.128;2022-12-24T15:01:46;21.80;48.40
73322;DHT22;61549;37.044;22.128;2022-12-24T15:06:53;21.60;48.60
73322;DHT22;61549;37.044;22.128;2022-12-24T15:09:29;21.50;48.60
73322;DHT22;61549;37.044;22.128;2022-12-24T15:11:59;21.50;49.40
73322;DHT22;61549;37.044;22.128;2022-12-24T15:14:27;21.40;49.90
73322;DHT22;61549;37.044;22.128;2022-12-24T15:17:03;21.30;50.20
73322;DHT22;61549;37.044;22.128;2022-12-24T15:19:41;21.20;49.90
73322;DHT22;61549;37.044;22.128;2022-12-24T15:22:22;21.10;50.20
73322;DHT22;61549;37.044;22.128;2022-12-24T15:24:49;21.00;50.20
73322;DHT22;61549;37.044;22.128;2022-12-24T15:27:21;20.90;50.80
73322;DHT22;61549;37.044;22.128;2022-12-24T15:29:51;20.70;51.00
73322;DHT22;61549;37.044;22.128;2022-12-24T15:32:18;20.60;51.30
73322;DHT22;61549;37.044;22.128;2022-12-24T15:34:52;20.50;51.40
73322;DHT22;61549;37.044;22.128;2022-12-24T15:37:27;20.40;51.70
73322;DHT22;61549;37.044;22.128;2022-12-24T15:42:29;20.20;52.60
73322;DHT22;61549;37.044;22.128;2022-12-24T15:45:04;20.10;53.00
73322;DHT22;61549;37.044;22.128;2022-12-24T15:47:44;20.00;53.30
73322;DHT22;61549;37.044;22.128;2022-12-24T15:50:31;19.90;53.60
73322;DHT22;61549;37.044;22.128;2022-12-24T16:01:26;19.50;54.30
73322;DHT22;61549;37.044;22.128;2022-12-24T16:06:20;19.30;53.80
73322;DHT22;61549;37.044;22.128;2022-12-24T16:08:46;19.30;53.50
73322;DHT22;61549;37.044;22.128;2022-12-24T16:11:16;19.20;53.40
73322;DHT22;61549;37.044;22.128;2022-12-24T16:16:18;19.20;53.40
73322;DHT22;61549;37.044;22.128;2022-12-24T16:18:51;19.10;53.40
73322;DHT22;61549;37.044;22.128;2022-12-24T16:21:31;19.00;53.10
73322;DHT22;61549;37.044;22.128;2022-12-24T16:24:17;19.00;53.20
73322;DHT22;61549;37.044;22.128;2022-12-24T16:26:44;18.90;53.50
73322;DHT22;61549;37.044;22.128;2022-12-24T16:29:13;18.70;53.90
73322;DHT22;61549;37.044;22.128;2022-12-24T16:31:45;18.50;54.00
73322;DHT22;61549;37.044;22.128;2022-12-24T16:34:13;18.40;54.40
73322;DHT22;61549;37.044;22.128;2022-12-24T16:36:40;18.40;54.50
73322;DHT22;61549;37.044;22.128;2022-12-24T16:41:54;18.40;54.00
73322;DHT22;61549;37.044;22.128;2022-12-24T16:44:39;18.30;53.90
73322;DHT22;61549;37.044;22.128;2022-12-24T16:47:12;18.30;54.00
73322;DHT22;61549;37.044;22.128;2022-12-24T16:49:38;18.30;53.90
73322;DHT22;61549;37.044;22.128;2022-12-24T16:52:26;18.20;54.00
73322;DHT22;61549;37.044;22.128;2022-12-24T16:54:54;18.20;54.30
73322;DHT22;61549;37.044;22.128;2022-12-24T16:57:21;18.10;54.30
73322;DHT22;61549;37.044;22.128;2022-12-24T16:59:47;18.10;54.60
73322;DHT22;61549;37.044;22.128;2022-12-24T17:02:15;18.20;54.50
73322;DHT22;61549;37.044;22.128;2022-12-24T17:04:41;18.10;54.60
73322;DHT22;61549;37.044;22.128;2022-12-24T17:07:09;18.10;54.80
73322;DHT22;61549;37.044;22.128;2022-12-24T17:09:36;18.00;54.80
73322;DHT22;61549;37.044;22.128;2022-12-24T17:12:01;17.90;55.00
73322;DHT22;61549;37.044;22.128;2022-12-24T17:14:27;17.90;54.90
73322;DHT22;61549;37.044;22.128;2022-12-24T17:16:53;17.80;54.70
73322;DHT22;61549;37.044;22.128;2022-12-24T17:19:19;17.80;54.60
73322;DHT22;61549;37.044;22.128;2022-12-24T17:21:45;17.80;54.10
73322;DHT22;61549;37.044;22.128;2022-12-24T17:24:11;17.80;54.30
73322;DHT22;61549;37.044;22.128;2022-12-24T17:26:37;17.80;54.50
73322;DHT22;61549;37.044;22.128;2022-12-24T17:29:03;17.80;54.40
73322;DHT22;61549;37.044;22.128;2022-12-24T17:31:30;17.80;54.00
73322;DHT22;61549;37.044;22.128;2022-12-24T17:33:57;17.80;54.00
73322;DHT22;61549;37.044;22.128;2022-12-24T17:36:23;17.80;54.30
73322;DHT22;61549;37.044;22.128;2022-12-24T17:38:50;17.80;53.80
73322;DHT22;61549;37.044;22.128;2022-12-24T17:41:18;17.80;54.30
73322;DHT22;61549;37.044;22.128;2022-12-24T17:43:45;17.70;54.50
73322;DHT22;61549;37.044;22.128;2022-12-24T17:46:17;17.70;54.30
73322;DHT22;61549;37.044;22.128;2022-12-24T17:48:43;17.70;54.40
73322;DHT22;61549;37.044;22.128;2022-12-24T17:51:12;17.60;54.20
73322;DHT22;61549;37.044;22.128;2022-12-24T17:53:39;17.60;54.20
73322;DHT22;61549;37.044;22.128;2022-12-24T17:56:07;17.60;54.60